sensor_id;sensor_type;location;lat;lon;timestamp;temperature;humidity
11944;DHT22;6031;50.220;10.122;2023-07-24T00:02:13;17.10;1.00
11944;DHT22;6031;50.220;10.122;2023-07-24T00:04:38;17.10;1.00
11944;DHT22;6031;50.220;10.122;2023-07-24T00:07:04;17.10;1.00
11944;DHT22;6031;50.220;10.122;2023-07-24T00:09:29;17.20;99.90
11944;DHT22;6031;50.220;10.122;2023-07-24T00:11:55;17.10;99.90
11944;DHT22;6031;50.220;10.122;2023-07-24T00:14:21;17.00;1.00
11944;DHT22;6031;50.220;10.122;2023-07-24T00:16:46;16.80;1.00
11944;DHT22;6031;50.220;10.122;2023-07-24T00:19:12;16.70;1.00
11944;DHT22;6031;50.220;10.122;2023-07-24T00:21:37;16.70;1.00
11944;DHT22;6031;50.220;10.122;2023-07-24T00:24:03;16.70;1.00
11944;DHT22;6031;50.220;10.122;2023-07-24T00:26:28;16.70;1.00
11944;DHT22;6031;50.220;10.122;2023-07-24T00:28:54;16.60;1.00
11944;DHT22;6031;50.220;10.122;2023-07-24T00:31:19;16.60;1.00
11944;DHT22;6031;50.220;10.122;2023-07-24T00:33:45;16.50;1.00
11944;DHT22;6031;50.220;10.122;2023-07-24T00:36:10;16.40;1.00
11944;DHT22;6031;50.220;10.122;2023-07-24T00:38:36;16.40;1.00
11944;DHT22;6031;50.220;10.122;2023-07-24T00:41:01;16.30;57.10
11944;DHT22;6031;50.220;10.122;2023-07-24T00:43:27;16.30;1.00
11944;DHT22;6031;50.220;10.122;2023-07-24T00:45:54;16.20;1.00
11944;DHT22;6031;50.220;10.122;2023-07-24T00:48:21;16.20;1.00
11944;DHT22;6031;50.220;10.122;2023-07-24T00:50:46;16.20;43.90
11944;DHT22;6031;50.220;10.122;2023-07-24T00:53:13;16.30;99.90
11944;DHT22;6031;50.220;10.122;2023-07-24T00:55:41;16.20;1.00
11944;DHT22;6031;50.220;10.122;2023-07-24T00:58:07;16.40;99.90
11944;DHT22;6031;50.220;10.122;2023-07-24T01:00:32;16.40;1.00
11944;DHT22;6031;50.220;10.122;2023-07-24T01:02:59;16.40;99.90
11944;DHT22;6031;50.220;10.122;2023-07-24T01:05:25;16.30;1.00
11944;DHT22;6031;50.220;10.122;2023-07-24T01:07:52;16.20;1.00
11944;DHT22;6031;50.220;10.122;2023-07-24T01:10:17;16.30;1.00
11944;DHT22;6031;50.220;10.122;2023-07-24T01:13:02;16.20;99.90
11944;DHT22;6031;50.220;10.122;2023-07-24T01:15:37;16.20;1.00
11944;DHT22;6031;50.220;10.122;2023-07-24T01:18:08;16.30;99.90
11944;DHT22;6031;50.220;10.122;2023-07-24T01:20:36;16.20;1.00
11944;DHT22;6031;50.220;10.122;2023-07-24T01:26:05;16.20;99.90
11944;DHT22;6031;50.220;10.122;2023-07-24T01:28:32;16.20;99.90
11944;DHT22;6031;50.220;10.122;2023-07-24T01:30:57;16.10;99.90
11944;DHT22;6031;50.220;10.122;2023-07-24T01:33:23;16.00;99.90
11944;DHT22;6031;50.220;10.122;2023-07-24T01:35:53;16.00;70.90
11944;DHT22;6031;50.220;10.122;2023-07-24T01:38:19;15.90;7.90
11944;DHT22;6031;50.220;10.122;2023-07-24T01:40:45;15.90;99.90
11944;DHT22;6031;50.220;10.122;2023-07-24T01:43:11;16.10;1.00
11944;DHT22;6031;50.220;10.122;2023-07-24T01:45:36;16.10;1.00
11944;DHT22;6031;50.220;10.122;2023-07-24T01:48:03;16.00;99.90
11944;DHT22;6031;50.220;10.122;2023-07-24T01:50:29;16.00;99.90
11944;DHT22;6031;50.220;10.122;2023-07-24T01:52:55;15.90;99.90
11944;DHT22;6031;50.220;10.122;2023-07-24T01:55:20;15.90;1.00
11944;DHT22;6031;50.220;10.122;2023-07-24T01:57:46;15.90;1.00
11944;DHT22;6031;50.220;10.122;2023-07-24T02:00:11;15.90;1.00
11944;DHT22;6031;50.220;10.122;2023-07-24T02:02:37;15.90;1.00
11944;DHT22;6031;50.220;10.122;2023-07-24T02:05:03;16.00;1.00
11944;DHT22;6031;50.220;10.122;2023-07-24T02:07:28;16.00;1.00
11944;DHT22;6031;50.220;10.122;2023-07-24T02:09:54;15.90;1.00
11944;DHT22;6031;50.220;10.122;2023-07-24T02:12:19;15.90;1.00
11944;DHT22;6031;50.220;10.122;2023-07-24T02:14:45;15.90;99.90
11944;DHT22;6031;50.220;10.122;2023-07-24T02:17:15;15.80;99.90
11944;DHT22;6031;50.220;10.122;2023-07-24T02:19:41;15.70;99.90
11944;DHT22;6031;50.220;10.122;2023-07-24T02:22:06;15.80;1.00
11944;DHT22;6031;50.220;10.122;2023-07-24T02:24:32;15.90;1.00
11944;DHT22;6031;50.220;10.122;2023-07-24T02:26:57;15.90;99.90
11944;DHT22;6031;50.220;10.122;2023-07-24T02:29:22;16.00;18.60
11944;DHT22;6031;50.220;10.122;2023-07-24T02:31:48;16.10;99.90
11944;DHT22;6031;50.220;10.122;2023-07-24T02:34:13;16.10;1.00
11944;DHT22;6031;50.220;10.122;2023-07-24T02:36:39;16.10;1.00
11944;DHT22;6031;50.220;10.122;2023-07-24T02:39:06;16.00;1.00
11944;DHT22;6031;50.220;10.122;2023-07-24T02:41:32;16.10;99.90
11944;DHT22;6031;50.220;10.122;2023-07-24T02:43:57;16.00;1.00
11944;DHT22;6031;50.220;10.122;2023-07-24T02:46:23;16.00;99.90
11944;DHT22;6031;50.220;10.122;2023-07-24T02:48:50;16.00;99.90
11944;DHT22;6031;50.220;10.122;2023-07-24T02:51:16;16.00;99.90
11944;DHT22;6031;50.220;10.122;2023-07-24T02:53:41;15.90;99.90
11944;DHT22;6031;50.220;10.122;2023-07-24T02:56:07;15.80;99.90
11944;DHT22;6031;50.220;10.122;2023-07-24T02:58:32;15.70;1.00
11944;DHT22;6031;50.220;10.122;2023-07-24T03:01:05;15.60;1.00
11944;DHT22;6031;50.220;10.122;2023-07-24T03:03:32;15.60;1.00
11944;DHT22;6031;50.220;10.122;2023-07-24T03:05:57;15.50;1.00
11944;DHT22;6031;50.220;10.122;2023-07-24T03:08:23;15.50;1.00
11944;DHT22;6031;50.220;10.122;2023-07-24T03:10:49;15.50;1.00
11944;DHT22;6031;50.220;10.122;2023-07-24T03:13:14;15.50;59.50
11944;DHT22;6031;50.220;10.122;2023-07-24T03:15:40;15.40;99.90
11944;DHT22;6031;50.220;10.122;2023-07-24T03:18:05;15.50;1.00
11944;DHT22;6031;50.220;10.122;2023-07-24T03:20:31;15.50;1.00
11944;DHT22;6031;50.220;10.122;2023-07-24T03:22:56;15.60;1.00
11944;DHT22;6031;50.220;10.122;2023-07-24T03:25:22;15.70;1.00
11944;DHT22;6031;50.220;10.122;2023-07-24T03:27:48;15.80;99.90
11944;DHT22;6031;50.220;10.122;2023-07-24T03:30:13;16.00;1.00
11944;DHT22;6031;50.220;10.122;2023-07-24T03:32:39;16.00;99.90
11944;DHT22;6031;50.220;10.122;2023-07-24T03:35:05;16.00;1.00
11944;DHT22;6031;50.220;10.122;2023-07-24T03:37:31;15.80;99.90
11944;DHT22;6031;50.220;10.122;2023-07-24T03:39:57;15.80;1.00
11944;DHT22;6031;50.220;10.122;2023-07-24T03:42:27;15.80;1.00
11944;DHT22;6031;50.220;10.122;2023-07-24T03:44:53;15.70;1.00
11944;DHT22;6031;50.220;10.122;2023-07-24T03:47:19;15.70;1.00
11944;DHT22;6031;50.220;10.122;2023-07-24T03:49:44;15.70;1.00
11944;DHT22;6031;50.220;10.122;2023-07-24T03:52:10;15.80;99.90
11944;DHT22;6031;50.220;10.122;2023-07-24T03:54:35;15.90;1.00
11944;DHT22;6031;50.220;10.122;2023-07-24T03:57:01;15.90;1.00
11944;DHT22;6031;50.220;10.122;2023-07-24T03:59:26;16.00;1.00
11944;DHT22;6031;50.220;10.122;2023-07-24T04:01:52;16.10;99.90
11944;DHT22;6031;50.220;10.122;2023-07-24T04:04:17;16.10;1.00
11944;DHT22;6031;50.220;10.122;2023-07-24T04:06:43;16.00;1.00
11944;DHT22;6031;50.220;10.122;2023-07-24T04:09:08;15.90;99.90
11944;DHT22;6031;50.220;10.122;2023-07-24T04:11:36;15.80;99.90
11944;DHT22;6031;50.220;10.122;2023-07-24T04:14:03;15.70;45.20
11944;DHT22;6031;50.220;10.122;2023-07-24T04:16:29;15.70;1.00
11944;DHT22;6031;50.220;10.122;2023-07-24T04:18:54;15.60;99.90
11944;DHT22;6031;50.220;10.122;2023-07-24T04:21:20;15.50;1.00
11944;DHT22;6031;50.220;10.122;2023-07-24T04:23:45;15.60;99.90
11944;DHT22;6031;50.220;10.122;2023-07-24T04:26:11;15.60;99.90
11944;DHT22;6031;50.220;10.122;2023-07-24T04:28:36;15.50;1.00
11944;DHT22;6031;50.220;10.122;2023-07-24T04:31:02;15.70;1.00
11944;DHT22;6031;50.220;10.122;2023-07-24T04:33:27;15.80;1.00
11944;DHT22;6031;50.220;10.122;2023-07-24T04:35:54;15.90;14.10
11944;DHT22;6031;50.220;10.122;2023-07-24T04:38:20;15.90;99.90
11944;DHT22;6031;50.220;10.122;2023-07-24T04:40:46;16.00;99.90
11944;DHT22;6031;50.220;10.122;2023-07-24T04:43:12;16.10;99.90
11944;DHT22;6031;50.220;10.122;2023-07-24T04:45:37;16.20;1.00
11944;DHT22;6031;50.220;10.122;2023-07-24T04:48:03;16.30;99.90
11944;DHT22;6031;50.220;10.122;2023-07-24T04:50:29;16.40;1.00
11944;DHT22;6031;50.220;10.122;2023-07-24T04:52:55;16.30;1.00
11944;DHT22;6031;50.220;10.122;2023-07-24T04:55:21;16.30;1.00
11944;DHT22;6031;50.220;10.122;2023-07-24T04:57:47;16.30;1.00
11944;DHT22;6031;50.220;10.122;2023-07-24T05:00:13;16.40;1.00
11944;DHT22;6031;50.220;10.122;2023-07-24T05:02:39;16.50;1.00
11944;DHT22;6031;50.220;10.122;2023-07-24T05:05:05;16.60;1.00
11944;DHT22;6031;50.220;10.122;2023-07-24T05:07:31;16.70;1.00
11944;DHT22;6031;50.220;10.122;2023-07-24T05:09:56;16.90;99.90
11944;DHT22;6031;50.220;10.122;2023-07-24T05:12:22;17.10;1.00
11944;DHT22;6031;50.220;10.122;2023-07-24T05:14:47;17.40;99.90
11944;DHT22;6031;50.220;10.122;2023-07-24T05:17:13;17.80;1.00
11944;DHT22;6031;50.220;10.122;2023-07-24T05:19:38;18.10;1.00
11944;DHT22;6031;50.220;10.122;2023-07-24T05:22:04;18.40;1.00
11944;DHT22;6031;50.220;10.122;2023-07-24T05:24:29;18.70;99.90
11944;DHT22;6031;50.220;10.122;2023-07-24T05:26:55;18.80;1.00
11944;DHT22;6031;50.220;10.122;2023-07-24T05:29:20;18.90;1.00
11944;DHT22;6031;50.220;10.122;2023-07-24T05:31:47;19.00;1.00
11944;DHT22;6031;50.220;10.122;2023-07-24T05:34:12;19.10;1.00
11944;DHT22;6031;50.220;10.122;2023-07-24T05:36:38;19.30;1.00
11944;DHT22;6031;50.220;10.122;2023-07-24T05:39:05;19.40;1.00
11944;DHT22;6031;50.220;10.122;2023-07-24T05:41:30;19.50;99.90
11944;DHT22;6031;50.220;10.122;2023-07-24T05:43:56;19.50;99.90
11944;DHT22;6031;50.220;10.122;2023-07-24T05:46:21;19.60;1.00
11944;DHT22;6031;50.220;10.122;2023-07-24T05:48:47;19.60;1.00
11944;DHT22;6031;50.220;10.122;2023-07-24T05:51:13;19.70;1.00
11944;DHT22;6031;50.220;10.122;2023-07-24T05:53:39;19.90;1.00
11944;DHT22;6031;50.220;10.122;2023-07-24T05:56:04;20.10;79.50
11944;DHT22;6031;50.220;10.122;2023-07-24T05:58:30;20.20;1.00
11944;DHT22;6031;50.220;10.122;2023-07-24T06:00:55;20.50;1.00
11944;DHT22;6031;50.220;10.122;2023-07-24T06:03:22;20.80;1.00
11944;DHT22;6031;50.220;10.122;2023-07-24T06:05:52;21.30;1.00
11944;DHT22;6031;50.220;10.122;2023-07-24T06:08:18;21.50;99.90
11944;DHT22;6031;50.220;10.122;2023-07-24T06:10:46;21.80;99.90
11944;DHT22;6031;50.220;10.122;2023-07-24T06:13:13;22.10;99.90
11944;DHT22;6031;50.220;10.122;2023-07-24T06:15:38;22.30;99.90
11944;DHT22;6031;50.220;10.122;2023-07-24T06:18:04;22.50;99.90
11944;DHT22;6031;50.220;10.122;2023-07-24T06:20:29;22.60;99.20
11944;DHT22;6031;50.220;10.122;2023-07-24T06:22:55;22.40;67.30
11944;DHT22;6031;50.220;10.122;2023-07-24T06:25:20;22.70;93.80
11944;DHT22;6031;50.220;10.122;2023-07-24T06:27:46;23.30;1.10
11944;DHT22;6031;50.220;10.122;2023-07-24T06:30:11;23.80;1.00
11944;DHT22;6031;50.220;10.122;2023-07-24T06:32:37;24.30;1.00
11944;DHT22;6031;50.220;10.122;2023-07-24T06:35:02;25.00;1.00
11944;DHT22;6031;50.220;10.122;2023-07-24T06:37:28;25.30;1.00
11944;DHT22;6031;50.220;10.122;2023-07-24T06:39:53;25.30;1.00
11944;DHT22;6031;50.220;10.122;2023-07-24T06:42:19;24.80;1.00
11944;DHT22;6031;50.220;10.122;2023-07-24T06:44:44;24.80;1.00
11944;DHT22;6031;50.220;10.122;2023-07-24T06:47:10;24.30;1.00
11944;DHT22;6031;50.220;10.122;2023-07-24T06:49:35;23.90;1.00
11944;DHT22;6031;50.220;10.122;2023-07-24T06:52:01;23.60;1.00
11944;DHT22;6031;50.220;10.122;2023-07-24T06:54:27;23.20;1.00
11944;DHT22;6031;50.220;10.122;2023-07-24T06:56:52;22.70;1.00
11944;DHT22;6031;50.220;10.122;2023-07-24T06:59:18;22.30;1.00
11944;DHT22;6031;50.220;10.122;2023-07-24T07:01:43;22.20;34.50
11944;DHT22;6031;50.220;10.122;2023-07-24T07:04:09;22.10;56.00
11944;DHT22;6031;50.220;10.122;2023-07-24T07:06:34;21.90;99.90
11944;DHT22;6031;50.220;10.122;2023-07-24T07:09:01;21.80;99.90
11944;DHT22;6031;50.220;10.122;2023-07-24T07:11:27;21.90;99.90
11944;DHT22;6031;50.220;10.122;2023-07-24T07:13:52;22.10;99.90
11944;DHT22;6031;50.220;10.122;2023-07-24T07:16:18;22.30;99.90
11944;DHT22;6031;50.220;10.122;2023-07-24T07:18:44;22.80;32.80
11944;DHT22;6031;50.220;10.122;2023-07-24T07:21:10;23.00;1.00
11944;DHT22;6031;50.220;10.122;2023-07-24T07:23:36;23.20;1.00
11944;DHT22;6031;50.220;10.122;2023-07-24T07:26:01;23.20;1.00
11944;DHT22;6031;50.220;10.122;2023-07-24T07:28:27;23.30;1.00
11944;DHT22;6031;50.220;10.122;2023-07-24T07:30:53;23.10;1.00
11944;DHT22;6031;50.220;10.122;2023-07-24T07:33:19;23.10;1.00
11944;DHT22;6031;50.220;10.122;2023-07-24T07:35:47;23.10;1.00
11944;DHT22;6031;50.220;10.122;2023-07-24T07:38:13;23.20;1.00
11944;DHT22;6031;50.220;10.122;2023-07-24T07:40:38;23.10;1.00
11944;DHT22;6031;50.220;10.122;2023-07-24T07:43:07;23.20;1.00
11944;DHT22;6031;50.220;10.122;2023-07-24T07:45:33;23.40;1.00
11944;DHT22;6031;50.220;10.122;2023-07-24T07:47:59;24.30;1.00
11944;DHT22;6031;50.220;10.122;2023-07-24T07:50:24;25.00;1.00
11944;DHT22;6031;50.220;10.122;2023-07-24T07:52:51;25.90;1.00
11944;DHT22;6031;50.220;10.122;2023-07-24T07:55:17;27.70;1.00
11944;DHT22;6031;50.220;10.122;2023-07-24T07:57:43;29.00;1.00
11944;DHT22;6031;50.220;10.122;2023-07-24T08:00:09;30.10;1.00
11944;DHT22;6031;50.220;10.122;2023-07-24T08:02:34;31.20;99.90
11944;DHT22;6031;50.220;10.122;2023-07-24T08:05:00;31.80;99.90
11944;DHT22;6031;50.220;10.122;2023-07-24T08:07:26;31.70;99.90
11944;DHT22;6031;50.220;10.122;2023-07-24T08:09:51;31.50;99.90
11944;DHT22;6031;50.220;10.122;2023-07-24T08:12:17;32.10;99.90
11944;DHT22;6031;50.220;10.122;2023-07-24T08:14:42;32.30;99.90
11944;DHT22;6031;50.220;10.122;2023-07-24T08:17:08;31.80;99.90
11944;DHT22;6031;50.220;10.122;2023-07-24T08:19:33;31.40;99.90
11944;DHT22;6031;50.220;10.122;2023-07-24T08:21:59;31.40;99.90
11944;DHT22;6031;50.220;10.122;2023-07-24T08:24:25;31.40;99.90
11944;DHT22;6031;50.220;10.122;2023-07-24T08:26:50;32.30;99.90
11944;DHT22;6031;50.220;10.122;2023-07-24T08:29:16;32.50;99.90
11944;DHT22;6031;50.220;10.122;2023-07-24T08:31:41;32.90;99.90
11944;DHT22;6031;50.220;10.122;2023-07-24T08:34:07;32.60;99.90
11944;DHT22;6031;50.220;10.122;2023-07-24T08:36:32;32.00;99.90
11944;DHT22;6031;50.220;10.122;2023-07-24T08:38:58;32.00;99.90
11944;DHT22;6031;50.220;10.122;2023-07-24T08:41:23;31.00;99.90
11944;DHT22;6031;50.220;10.122;2023-07-24T08:43:49;29.40;99.90
11944;DHT22;6031;50.220;10.122;2023-07-24T08:46:18;28.30;99.90
11944;DHT22;6031;50.220;10.122;2023-07-24T08:48:43;28.30;99.90
11944;DHT22;6031;50.220;10.122;2023-07-24T08:51:13;28.30;99.90
11944;DHT22;6031;50.220;10.122;2023-07-24T08:53:43;28.30;99.90
11944;DHT22;6031;50.220;10.122;2023-07-24T08:56:09;28.40;99.90
11944;DHT22;6031;50.220;10.122;2023-07-24T08:58:36;28.50;99.90
11944;DHT22;6031;50.220;10.122;2023-07-24T09:01:03;28.20;99.90
11944;DHT22;6031;50.220;10.122;2023-07-24T09:03:29;27.80;99.90
11944;DHT22;6031;50.220;10.122;2023-07-24T09:05:55;27.90;99.90
11944;DHT22;6031;50.220;10.122;2023-07-24T09:08:38;28.00;99.90
11944;DHT22;6031;50.220;10.122;2023-07-24T09:11:04;27.90;99.90
11944;DHT22;6031;50.220;10.122;2023-07-24T09:13:31;27.90;99.90
11944;DHT22;6031;50.220;10.122;2023-07-24T09:15:56;27.80;99.90
11944;DHT22;6031;50.220;10.122;2023-07-24T09:18:22;27.80;99.90
11944;DHT22;6031;50.220;10.122;2023-07-24T09:20:48;27.70;99.90
11944;DHT22;6031;50.220;10.122;2023-07-24T09:23:15;27.60;99.90
11944;DHT22;6031;50.220;10.122;2023-07-24T09:25:43;27.70;99.90
11944;DHT22;6031;50.220;10.122;2023-07-24T09:28:13;27.50;99.90
11944;DHT22;6031;50.220;10.122;2023-07-24T09:30:39;27.20;99.90
11944;DHT22;6031;50.220;10.122;2023-07-24T09:33:06;26.40;1.00
11944;DHT22;6031;50.220;10.122;2023-07-24T09:35:32;26.30;1.00
11944;DHT22;6031;50.220;10.122;2023-07-24T09:38:06;26.70;1.00
11944;DHT22;6031;50.220;10.122;2023-07-24T09:40:45;27.00;1.00
11944;DHT22;6031;50.220;10.122;2023-07-24T09:43:20;26.90;1.00
11944;DHT22;6031;50.220;10.122;2023-07-24T09:45:48;26.80;1.00
11944;DHT22;6031;50.220;10.122;2023-07-24T09:48:15;26.90;1.00
11944;DHT22;6031;50.220;10.122;2023-07-24T09:50:42;26.80;1.00
11944;DHT22;6031;50.220;10.122;2023-07-24T09:56:00;26.70;1.00
11944;DHT22;6031;50.220;10.122;2023-07-24T09:58:26;26.60;1.00
11944;DHT22;6031;50.220;10.122;2023-07-24T10:00:53;27.10;1.00
11944;DHT22;6031;50.220;10.122;2023-07-24T10:03:19;27.40;1.00
11944;DHT22;6031;50.220;10.122;2023-07-24T10:05:47;27.90;1.00
11944;DHT22;6031;50.220;10.122;2023-07-24T10:08:17;28.90;99.90
11944;DHT22;6031;50.220;10.122;2023-07-24T10:10:43;29.50;99.90
11944;DHT22;6031;50.220;10.122;2023-07-24T10:13:10;30.10;99.90
11944;DHT22;6031;50.220;10.122;2023-07-24T10:15:38;30.60;99.90
11944;DHT22;6031;50.220;10.122;2023-07-24T10:18:06;31.30;99.90
11944;DHT22;6031;50.220;10.122;2023-07-24T10:20:36;32.30;99.90
11944;DHT22;6031;50.220;10.122;2023-07-24T10:23:04;33.30;99.90
11944;DHT22;6031;50.220;10.122;2023-07-24T10:25:31;33.90;99.90
11944;DHT22;6031;50.220;10.122;2023-07-24T10:28:05;33.70;99.90
11944;DHT22;6031;50.220;10.122;2023-07-24T10:30:37;34.30;99.90
11944;DHT22;6031;50.220;10.122;2023-07-24T10:33:17;35.40;99.90
11944;DHT22;6031;50.220;10.122;2023-07-24T10:35:45;36.20;99.90
11944;DHT22;6031;50.220;10.122;2023-07-24T10:38:13;36.00;99.90
11944;DHT22;6031;50.220;10.122;2023-07-24T10:40:40;34.20;99.90
11944;DHT22;6031;50.220;10.122;2023-07-24T10:43:08;32.60;99.90
11944;DHT22;6031;50.220;10.122;2023-07-24T10:45:52;31.60;99.90
11944;DHT22;6031;50.220;10.122;2023-07-24T10:48:20;30.20;99.90
11944;DHT22;6031;50.220;10.122;2023-07-24T10:50:48;29.50;99.90
11944;DHT22;6031;50.220;10.122;2023-07-24T10:53:15;29.20;99.90
11944;DHT22;6031;50.220;10.122;2023-07-24T10:55:45;29.50;99.90
11944;DHT22;6031;50.220;10.122;2023-07-24T10:58:11;30.00;99.90
11944;DHT22;6031;50.220;10.122;2023-07-24T11:00:39;29.50;99.90
11944;DHT22;6031;50.220;10.122;2023-07-24T11:03:05;29.00;99.90
11944;DHT22;6031;50.220;10.122;2023-07-24T11:05:32;28.70;99.90
11944;DHT22;6031;50.220;10.122;2023-07-24T11:07:58;28.30;99.90
11944;DHT22;6031;50.220;10.122;2023-07-24T11:10:23;27.60;99.90
11944;DHT22;6031;50.220;10.122;2023-07-24T11:12:49;27.00;99.90
11944;DHT22;6031;50.220;10.122;2023-07-24T11:15:23;26.90;99.90
11944;DHT22;6031;50.220;10.122;2023-07-24T11:17:50;27.00;99.90
11944;DHT22;6031;50.220;10.122;2023-07-24T11:20:16;26.80;99.90
11944;DHT22;6031;50.220;10.122;2023-07-24T11:22:43;26.80;99.90
11944;DHT22;6031;50.220;10.122;2023-07-24T11:25:10;26.80;99.90
11944;DHT22;6031;50.220;10.122;2023-07-24T11:27:43;26.90;99.90
11944;DHT22;6031;50.220;10.122;2023-07-24T11:30:12;26.80;1.00
11944;DHT22;6031;50.220;10.122;2023-07-24T11:32:44;26.60;1.00
11944;DHT22;6031;50.220;10.122;2023-07-24T11:35:10;25.70;1.00
11944;DHT22;6031;50.220;10.122;2023-07-24T11:37:35;25.70;1.00
11944;DHT22;6031;50.220;10.122;2023-07-24T11:40:03;26.00;1.00
11944;DHT22;6031;50.220;10.122;2023-07-24T11:42:39;26.00;1.00
11944;DHT22;6031;50.220;10.122;2023-07-24T11:45:07;25.90;1.00
11944;DHT22;6031;50.220;10.122;2023-07-24T11:47:42;26.20;1.00
11944;DHT22;6031;50.220;10.122;2023-07-24T11:50:08;26.30;1.00
11944;DHT22;6031;50.220;10.122;2023-07-24T11:52:38;26.10;1.00
11944;DHT22;6031;50.220;10.122;2023-07-24T11:55:05;25.90;1.00
11944;DHT22;6031;50.220;10.122;2023-07-24T11:57:30;25.90;1.00
11944;DHT22;6031;50.220;10.122;2023-07-24T11:59:56;25.80;1.00
11944;DHT22;6031;50.220;10.122;2023-07-24T12:02:25;25.90;1.00
11944;DHT22;6031;50.220;10.122;2023-07-24T12:04:58;26.10;1.00
11944;DHT22;6031;50.220;10.122;2023-07-24T12:07:34;26.60;1.00
11944;DHT22;6031;50.220;10.122;2023-07-24T12:10:01;27.50;1.00
11944;DHT22;6031;50.220;10.122;2023-07-24T12:12:44;27.90;1.00
11944;DHT22;6031;50.220;10.122;2023-07-24T12:15:10;27.70;1.00
11944;DHT22;6031;50.220;10.122;2023-07-24T12:17:36;27.60;1.00
11944;DHT22;6031;50.220;10.122;2023-07-24T12:20:02;27.90;99.90
11944;DHT22;6031;50.220;10.122;2023-07-24T12:22:29;28.20;99.90
11944;DHT22;6031;50.220;10.122;2023-07-24T12:24:55;29.10;99.90
11944;DHT22;6031;50.220;10.122;2023-07-24T12:27:21;29.80;99.90
11944;DHT22;6031;50.220;10.122;2023-07-24T12:29:46;30.10;99.90
11944;DHT22;6031;50.220;10.122;2023-07-24T12:32:12;30.20;99.90
11944;DHT22;6031;50.220;10.122;2023-07-24T12:34:37;30.40;99.90
11944;DHT22;6031;50.220;10.122;2023-07-24T12:37:03;30.50;99.90
11944;DHT22;6031;50.220;10.122;2023-07-24T12:39:28;29.50;99.90
11944;DHT22;6031;50.220;10.122;2023-07-24T12:41:54;28.80;99.90
11944;DHT22;6031;50.220;10.122;2023-07-24T12:44:19;28.40;99.90
11944;DHT22;6031;50.220;10.122;2023-07-24T12:46:45;28.20;99.90
11944;DHT22;6031;50.220;10.122;2023-07-24T12:49:10;28.20;99.90
11944;DHT22;6031;50.220;10.122;2023-07-24T12:51:36;27.90;99.90
11944;DHT22;6031;50.220;10.122;2023-07-24T12:54:01;27.80;99.90
11944;DHT22;6031;50.220;10.122;2023-07-24T12:56:27;27.60;99.90
11944;DHT22;6031;50.220;10.122;2023-07-24T12:58:52;28.40;99.90
11944;DHT22;6031;50.220;10.122;2023-07-24T13:01:18;29.20;99.90
11944;DHT22;6031;50.220;10.122;2023-07-24T13:03:43;29.70;99.90
11944;DHT22;6031;50.220;10.122;2023-07-24T13:06:09;29.90;99.90
11944;DHT22;6031;50.220;10.122;2023-07-24T13:08:35;30.40;99.90
11944;DHT22;6031;50.220;10.122;2023-07-24T13:11:00;31.10;99.90
11944;DHT22;6031;50.220;10.122;2023-07-24T13:13:26;31.20;99.90
11944;DHT22;6031;50.220;10.122;2023-07-24T13:15:51;30.80;99.90
11944;DHT22;6031;50.220;10.122;2023-07-24T13:18:17;30.20;99.90
11944;DHT22;6031;50.220;10.122;2023-07-24T13:20:42;29.30;99.90
11944;DHT22;6031;50.220;10.122;2023-07-24T13:23:08;28.10;99.90
11944;DHT22;6031;50.220;10.122;2023-07-24T13:25:33;27.70;99.90
11944;DHT22;6031;50.220;10.122;2023-07-24T13:27:59;27.90;99.90
11944;DHT22;6031;50.220;10.122;2023-07-24T13:30:25;27.80;99.90
11944;DHT22;6031;50.220;10.122;2023-07-24T13:32:50;27.60;99.90
11944;DHT22;6031;50.220;10.122;2023-07-24T13:35:16;27.80;99.90
11944;DHT22;6031;50.220;10.122;2023-07-24T13:37:42;28.30;99.90
11944;DHT22;6031;50.220;10.122;2023-07-24T13:40:08;28.70;99.90
11944;DHT22;6031;50.220;10.122;2023-07-24T13:42:33;28.00;99.90
11944;DHT22;6031;50.220;10.122;2023-07-24T13:44:59;28.10;99.90
11944;DHT22;6031;50.220;10.122;2023-07-24T13:47:24;29.00;99.90
11944;DHT22;6031;50.220;10.122;2023-07-24T13:49:50;29.80;99.90
11944;DHT22;6031;50.220;10.122;2023-07-24T13:52:15;29.90;99.90
11944;DHT22;6031;50.220;10.122;2023-07-24T13:54:41;30.60;99.90
11944;DHT22;6031;50.220;10.122;2023-07-24T13:57:07;29.60;99.90
11944;DHT22;6031;50.220;10.122;2023-07-24T13:59:36;29.80;99.90
11944;DHT22;6031;50.220;10.122;2023-07-24T14:02:04;30.30;99.90
11944;DHT22;6031;50.220;10.122;2023-07-24T14:04:30;30.40;99.90
11944;DHT22;6031;50.220;10.122;2023-07-24T14:06:58;30.60;99.90
11944;DHT22;6031;50.220;10.122;2023-07-24T14:09:23;31.10;99.90
11944;DHT22;6031;50.220;10.122;2023-07-24T14:11:49;30.70;99.90
11944;DHT22;6031;50.220;10.122;2023-07-24T14:14:17;29.90;99.90
11944;DHT22;6031;50.220;10.122;2023-07-24T14:16:43;29.50;99.90
11944;DHT22;6031;50.220;10.122;2023-07-24T14:19:08;30.30;99.90
11944;DHT22;6031;50.220;10.122;2023-07-24T14:21:34;30.50;99.90
11944;DHT22;6031;50.220;10.122;2023-07-24T14:23:59;30.10;99.90
11944;DHT22;6031;50.220;10.122;2023-07-24T14:26:25;30.10;99.90
11944;DHT22;6031;50.220;10.122;2023-07-24T14:28:50;29.80;99.90
11944;DHT22;6031;50.220;10.122;2023-07-24T14:31:16;29.40;99.90
11944;DHT22;6031;50.220;10.122;2023-07-24T14:33:41;28.10;99.90
11944;DHT22;6031;50.220;10.122;2023-07-24T14:36:07;28.00;99.90
11944;DHT22;6031;50.220;10.122;2023-07-24T14:38:32;28.30;99.90
11944;DHT22;6031;50.220;10.122;2023-07-24T14:40:58;28.60;99.90
11944;DHT22;6031;50.220;10.122;2023-07-24T14:43:23;29.30;99.90
11944;DHT22;6031;50.220;10.122;2023-07-24T14:45:49;29.90;99.90
11944;DHT22;6031;50.220;10.122;2023-07-24T14:48:14;30.10;99.90
11944;DHT22;6031;50.220;10.122;2023-07-24T14:50:42;29.90;99.90
11944;DHT22;6031;50.220;10.122;2023-07-24T14:53:07;30.10;99.90
11944;DHT22;6031;50.220;10.122;2023-07-24T14:55:33;30.20;99.90
11944;DHT22;6031;50.220;10.122;2023-07-24T14:57:58;29.90;99.90
11944;DHT22;6031;50.220;10.122;2023-07-24T15:00:24;29.50;99.90
11944;DHT22;6031;50.220;10.122;2023-07-24T15:02:49;28.60;99.90
11944;DHT22;6031;50.220;10.122;2023-07-24T15:05:15;28.10;99.90
11944;DHT22;6031;50.220;10.122;2023-07-24T15:07:40;27.40;99.90
11944;DHT22;6031;50.220;10.122;2023-07-24T15:10:06;27.10;99.90
11944;DHT22;6031;50.220;10.122;2023-07-24T15:12:32;26.80;99.90
11944;DHT22;6031;50.220;10.122;2023-07-24T15:14:57;26.90;99.90
11944;DHT22;6031;50.220;10.122;2023-07-24T15:17:23;27.00;99.90
11944;DHT22;6031;50.220;10.122;2023-07-24T15:19:49;27.00;99.90
11944;DHT22;6031;50.220;10.122;2023-07-24T15:22:14;26.80;99.90
11944;DHT22;6031;50.220;10.122;2023-07-24T15:24:40;26.50;99.90
11944;DHT22;6031;50.220;10.122;2023-07-24T15:27:07;26.30;99.90
11944;DHT22;6031;50.220;10.122;2023-07-24T15:29:36;26.00;99.90
11944;DHT22;6031;50.220;10.122;2023-07-24T15:32:02;25.80;1.00
11944;DHT22;6031;50.220;10.122;2023-07-24T15:34:28;25.70;1.00
11944;DHT22;6031;50.220;10.122;2023-07-24T15:36:54;25.50;1.00
11944;DHT22;6031;50.220;10.122;2023-07-24T15:39:19;25.50;1.00